createdAt,value
2022-12-22T00:02:07.123Z,67.48
2022-12-22T00:04:53.231Z,67.14
2022-12-22T00:07:39.148Z,66.70
2022-12-22T00:10:25.921Z,65.45
2022-12-22T00:13:11.609Z,65.60
2022-12-22T00:16:00.356Z,64.79
2022-12-22T00:18:46.368Z,65.98
2022-12-22T00:21:32.874Z,65.37
2022-12-22T00:24:18.952Z,66.68
2022-12-22T00:27:06.866Z,65.70
2022-12-22T00:29:58.299Z,67.49
2022-12-22T00:32:50.402Z,67.29
2022-12-22T00:35:40.937Z,68.80
2022-12-22T00:38:33.549Z,69.07
2022-12-22T00:41:19.611Z,69.75
2022-12-22T00:44:05.441Z,68.93
2022-12-22T00:46:52.463Z,69.37
2022-12-22T00:49:45.381Z,69.27
2022-12-22T00:52:36.788Z,70.02
2022-12-22T00:55:30.610Z,70.42
2022-12-22T00:58:17.270Z,70.79
2022-12-22T01:01:06.183Z,71.41
2022-12-22T01:03:52.072Z,70.11
2022-12-22T01:06:39.732Z,71.38
2022-12-22T01:09:25.430Z,71.91
2022-12-22T01:12:11.153Z,71.75
2022-12-22T01:14:56.865Z,71.75
2022-12-22T01:17:42.921Z,70.49
2022-12-22T01:20:29.589Z,70.86
2022-12-22T01:23:16.637Z,70.28
2022-12-22T01:26:03.156Z,70.81
2022-12-22T01:28:48.957Z,70.09
2022-12-22T01:31:37.473Z,70.34
2022-12-22T01:34:23.450Z,70.12
2022-12-22T01:37:09.444Z,71.82
2022-12-22T01:39:56.810Z,71.42
2022-12-22T01:42:43.297Z,71.55
2022-12-22T01:45:40.113Z,72.22
2022-12-22T01:48:30.215Z,72.60
2022-12-22T01:51:18.557Z,71.76
2022-12-22T01:54:04.675Z,73.14
2022-12-22T01:56:52.787Z,71.81
2022-12-22T01:59:38.727Z,71.66
2022-12-22T02:02:25.712Z,72.05
2022-12-22T02:05:13.467Z,70.67
2022-12-22T02:08:19.242Z,70.60
2022-12-22T02:11:29.190Z,71.16
2022-12-22T02:14:32.559Z,70.48
2022-12-22T02:17:26.377Z,70.82
2022-12-22T02:20:32.848Z,69.62
2022-12-22T02:23:28.774Z,70.92
2022-12-22T02:26:21.166Z,70.40
2022-12-22T02:29:11.017Z,71.47
2022-12-22T02:32:00.796Z,72.39
2022-12-22T02:34:46.705Z,72.25
2022-12-22T02:37:43.973Z,72.74
2022-12-22T02:40:41.494Z,73.39
2022-12-22T02:43:38.753Z,72.51
2022-12-22T02:46:34.114Z,72.85
2022-12-22T02:49:25.292Z,72.53
2022-12-22T02:52:20.119Z,73.57
2022-12-22T02:55:06.301Z,73.28
2022-12-22T02:57:53.060Z,72.62
2022-12-22T03:00:39.151Z,72.94
2022-12-22T03:03:27.085Z,73.89
2022-12-22T03:06:13.118Z,73.31
2022-12-22T03:08:58.962Z,72.87
2022-12-22T03:11:44.904Z,73.64
2022-12-22T03:14:30.609Z,72.86
2022-12-22T03:17:16.430Z,72.71
2022-12-22T03:20:04.168Z,73.72
2022-12-22T03:22:50.558Z,73.90
2022-12-22T03:25:36.243Z,74.22
2022-12-22T03:28:05.369Z,72.80
2022-12-22T03:30:34.864Z,72.32
2022-12-22T03:33:03.351Z,72.67
2022-12-22T03:35:33.541Z,72.33
2022-12-22T03:38:05.911Z,72.55
2022-12-22T03:40:34.627Z,72.42
2022-12-22T03:43:20.618Z,73.06
2022-12-22T03:46:06.840Z,73.16
2022-12-22T03:48:35.640Z,73.86
2022-12-22T03:51:05.227Z,72.52
2022-12-22T03:53:34.107Z,73.16
2022-12-22T03:56:07.488Z,71.97
2022-12-22T03:58:36.519Z,73.23
2022-12-22T04:01:10.961Z,74.28
2022-12-22T04:03:39.732Z,72.50
2022-12-22T04:06:09.427Z,71.59
2022-12-22T04:08:38.363Z,73.00
2022-12-22T04:11:24.640Z,74.21
2022-12-22T04:13:53.318Z,72.17
2022-12-22T04:16:21.915Z,72.03
2022-12-22T04:18:50.306Z,71.89
2022-12-22T04:21:19.759Z,70.96
2022-12-22T04:23:51.346Z,70.59
2022-12-22T04:26:20.330Z,70.06
2022-12-22T04:28:48.952Z,70.82
2022-12-22T04:31:17.425Z,74.67
2022-12-22T04:33:46.009Z,73.53
2022-12-22T04:36:14.817Z,74.04
2022-12-22T04:38:45.045Z,72.71
2022-12-22T04:41:13.597Z,72.59
2022-12-22T04:43:41.762Z,71.83
2022-12-22T04:46:10.383Z,70.13
2022-12-22T04:48:38.781Z,71.16
2022-12-22T04:51:07.694Z,71.83
2022-12-22T04:53:35.896Z,71.35
2022-12-22T04:56:07.638Z,73.28
2022-12-22T04:58:36.996Z,74.06
2022-12-22T05:01:13.283Z,73.14
2022-12-22T05:03:43.758Z,72.28
2022-12-22T05:06:13.175Z,73.38
2022-12-22T05:08:41.825Z,72.06
2022-12-22T05:11:11.704Z,71.98
2022-12-22T05:13:41.164Z,72.74
2022-12-22T05:16:13.795Z,73.67
2022-12-22T05:18:44.549Z,74.50
2022-12-22T05:21:16.844Z,74.56
2022-12-22T05:23:46.632Z,74.84
2022-12-22T05:26:18.675Z,76.12
2022-12-22T05:28:48.560Z,75.64
2022-12-22T05:31:19.124Z,74.43
2022-12-22T05:33:47.625Z,73.92
2022-12-22T05:36:16.118Z,74.80
2022-12-22T05:38:45.635Z,74.98
2022-12-22T05:41:14.705Z,74.76
2022-12-22T05:43:44.412Z,74.91
2022-12-22T05:46:13.504Z,75.98
2022-12-22T05:48:42.142Z,74.20
2022-12-22T05:51:11.361Z,75.62
2022-12-22T05:53:40.689Z,77.13
2022-12-22T05:56:09.795Z,76.21
2022-12-22T05:58:40.074Z,77.04
2022-12-22T06:01:10.434Z,76.11
2022-12-22T06:03:39.310Z,75.79
2022-12-22T06:06:08.232Z,76.24
2022-12-22T06:08:36.737Z,75.34
2022-12-22T06:11:05.121Z,75.50
2022-12-22T06:13:33.543Z,74.65
2022-12-22T06:16:02.077Z,74.61
2022-12-22T06:18:33.410Z,75.00
2022-12-22T06:21:02.891Z,76.69
2022-12-22T06:23:31.828Z,76.19
2022-12-22T06:26:02.532Z,75.96
2022-12-22T06:28:31.411Z,73.91
2022-12-22T06:30:59.807Z,73.66
2022-12-22T06:33:28.426Z,74.28
2022-12-22T06:35:59.696Z,73.69
2022-12-22T06:38:29.414Z,74.22
2022-12-22T06:40:57.682Z,73.48
2022-12-22T06:43:25.461Z,73.69
2022-12-22T06:45:54.165Z,75.47
2022-12-22T06:48:22.910Z,73.97
2022-12-22T06:50:51.473Z,73.14
2022-12-22T06:53:21.310Z,72.77
2022-12-22T06:55:50.363Z,74.32
2022-12-22T06:58:19.197Z,72.66
2022-12-22T07:00:49.845Z,71.35
2022-12-22T07:03:18.742Z,71.35
2022-12-22T07:05:47.190Z,70.94
2022-12-22T07:08:15.817Z,71.55
2022-12-22T07:11:01.471Z,72.39
2022-12-22T07:13:34.193Z,71.92
2022-12-22T07:16:04.152Z,73.99
2022-12-22T07:18:34.364Z,72.23
2022-12-22T07:21:04.134Z,72.39
2022-12-22T07:23:33.322Z,72.76
2022-12-22T07:26:03.850Z,71.98
2022-12-22T07:28:34.343Z,72.15
2022-12-22T07:31:02.942Z,71.40
2022-12-22T07:33:31.479Z,71.02
2022-12-22T07:36:07.973Z,70.65
2022-12-22T07:38:38.341Z,70.65
2022-12-22T07:41:30.076Z,70.39
2022-12-22T07:43:59.526Z,69.54
2022-12-22T07:46:29.702Z,71.29
2022-12-22T07:49:15.786Z,70.68
2022-12-22T07:51:44.950Z,70.52
2022-12-22T07:54:15.559Z,69.99
2022-12-22T07:56:46.629Z,71.84
2022-12-22T07:59:16.527Z,72.62
2022-12-22T08:01:45.795Z,73.15
2022-12-22T08:04:15.660Z,74.34
2022-12-22T08:06:44.289Z,73.00
2022-12-22T08:09:16.637Z,74.07
2022-12-22T08:14:45.909Z,72.28
2022-12-22T08:17:14.202Z,73.67
2022-12-22T08:19:42.655Z,72.97
2022-12-22T08:22:12.464Z,72.63
2022-12-22T08:24:40.623Z,72.07
2022-12-22T08:27:18.359Z,71.91
2022-12-22T08:29:57.101Z,71.57
2022-12-22T08:32:25.897Z,72.64
2022-12-22T08:34:55.166Z,70.82
2022-12-22T08:37:29.371Z,71.03
2022-12-22T08:40:03.505Z,71.24
2022-12-22T08:42:35.224Z,72.07
2022-12-22T08:45:04.488Z,73.01
2022-12-22T08:47:36.289Z,73.75
2022-12-22T08:50:07.184Z,72.93
2022-12-22T08:52:37.139Z,72.89
2022-12-22T08:55:08.794Z,73.07
2022-12-22T08:57:40.786Z,73.85
2022-12-22T09:00:14.686Z,74.43
2022-12-22T09:02:48.552Z,73.29
2022-12-22T09:05:28.422Z,71.90
2022-12-22T09:08:10.019Z,70.87
2022-12-22T09:11:12.119Z,72.14
2022-12-22T09:13:47.952Z,71.41
2022-12-22T09:16:25.806Z,72.16
2022-12-22T09:19:11.037Z,71.44
2022-12-22T09:21:48.216Z,71.36
2022-12-22T09:24:24.876Z,71.09
2022-12-22T09:27:22.363Z,72.21
2022-12-22T09:29:53.986Z,72.60
2022-12-22T09:32:51.532Z,73.50
2022-12-22T09:35:24.723Z,73.08
2022-12-22T09:37:54.208Z,72.72
2022-12-22T09:40:22.646Z,74.23
2022-12-22T09:42:51.797Z,73.92
2022-12-22T09:45:21.699Z,72.16
2022-12-22T09:47:53.911Z,72.06
2022-12-22T09:50:24.160Z,72.66
2022-12-22T09:52:56.278Z,72.72
2022-12-22T09:55:39.624Z,72.46
2022-12-22T09:58:25.698Z,72.08
2022-12-22T10:01:04.308Z,72.17
2022-12-22T10:03:41.289Z,71.83
2022-12-22T10:06:15.045Z,73.77
2022-12-22T10:08:43.926Z,72.42
2022-12-22T10:11:16.358Z,70.97
2022-12-22T10:13:45.708Z,72.71
2022-12-22T10:16:26.502Z,73.27
2022-12-22T10:19:02.024Z,71.80
2022-12-22T10:21:30.753Z,71.89
2022-12-22T10:23:59.152Z,72.34
2022-12-22T10:26:31.845Z,71.52
2022-12-22T10:29:04.679Z,71.75
2022-12-22T10:31:36.398Z,73.20
2022-12-22T10:34:15.269Z,72.86
2022-12-22T10:36:48.695Z,71.94
2022-12-22T10:39:22.733Z,72.89
2022-12-22T10:41:55.222Z,72.54
2022-12-22T10:44:26.700Z,71.41
2022-12-22T10:46:59.171Z,70.81
2022-12-22T10:49:30.669Z,72.16
2022-12-22T10:52:12.454Z,72.41
2022-12-22T10:54:42.685Z,72.58
2022-12-22T10:57:29.015Z,71.31
2022-12-22T10:59:59.349Z,70.68
2022-12-22T11:02:33.310Z,68.50
2022-12-22T11:05:05.569Z,70.72
2022-12-22T11:07:36.386Z,69.42
2022-12-22T11:10:19.063Z,69.68
2022-12-22T11:13:02.610Z,69.64
2022-12-22T11:15:40.384Z,70.57
2022-12-22T11:18:25.178Z,72.05
2022-12-22T11:21:02.505Z,71.61
2022-12-22T11:23:37.287Z,72.31
2022-12-22T11:26:15.569Z,73.10
2022-12-22T11:28:57.767Z,72.48
2022-12-22T11:31:43.490Z,72.50
2022-12-22T11:34:25.724Z,72.42
2022-12-22T11:37:06.766Z,72.04
2022-12-22T11:39:41.847Z,72.20
2022-12-22T11:42:30.486Z,70.88
2022-12-22T11:45:06.973Z,71.57
2022-12-22T11:47:44.129Z,71.64
2022-12-22T11:50:59.944Z,69.95
2022-12-22T11:53:44.480Z,69.17
2022-12-22T11:56:25.515Z,69.02
2022-12-22T11:59:17.812Z,68.30
2022-12-22T12:02:00.392Z,68.58
2022-12-22T12:05:02.882Z,68.97
2022-12-22T12:07:41.394Z,70.48
2022-12-22T12:10:19.814Z,71.08
2022-12-22T12:13:00.424Z,70.26
2022-12-22T12:15:38.077Z,71.54
2022-12-22T12:18:28.457Z,70.37
2022-12-22T12:21:10.470Z,69.95
2022-12-22T12:23:59.730Z,71.30
2022-12-22T12:26:37.257Z,71.31
2022-12-22T12:29:19.942Z,71.78
2022-12-22T12:31:55.309Z,70.65
2022-12-22T12:34:25.472Z,69.59
2022-12-22T12:37:00.341Z,72.27
2022-12-22T12:39:38.034Z,70.71
2022-12-22T12:42:22.954Z,69.52
2022-12-22T12:44:52.376Z,70.70
2022-12-22T12:47:26.679Z,69.99
2022-12-22T12:49:57.847Z,69.74
2022-12-22T12:53:17.652Z,70.54
2022-12-22T12:56:00.144Z,68.22
2022-12-22T12:58:49.391Z,69.30
2022-12-22T13:01:55.362Z,68.05
2022-12-22T13:04:57.529Z,69.58
2022-12-22T13:08:03.047Z,70.63
2022-12-22T13:10:32.505Z,70.73
2022-12-22T13:13:02.614Z,71.65
2022-12-22T13:15:33.239Z,71.20
2022-12-22T13:18:02.802Z,71.18
2022-12-22T13:20:35.002Z,70.50
2022-12-22T13:23:11.403Z,71.03
2022-12-22T13:25:46.896Z,70.67
2022-12-22T13:28:20.019Z,70.82
2022-12-22T13:30:49.817Z,70.13
2022-12-22T13:33:22.186Z,71.31
2022-12-22T13:35:58.256Z,71.58
2022-12-22T13:38:29.399Z,70.81
2022-12-22T13:40:58.986Z,71.05
2022-12-22T13:43:31.051Z,71.00
2022-12-22T13:46:02.777Z,71.63
2022-12-22T13:48:43.942Z,71.47
2022-12-22T13:51:20.179Z,71.14
2022-12-22T13:54:08.609Z,71.10
2022-12-22T13:56:41.210Z,69.61
2022-12-22T13:59:23.191Z,70.92
2022-12-22T14:01:52.937Z,70.31
2022-12-22T14:04:21.419Z,70.80
2022-12-22T14:06:49.870Z,71.94
2022-12-22T14:09:19.899Z,70.82
2022-12-22T14:11:52.309Z,70.41
2022-12-22T14:14:26.516Z,71.87
2022-12-22T14:16:57.836Z,71.51
2022-12-22T14:19:27.952Z,70.63
2022-12-22T14:22:10.732Z,71.32
2022-12-22T14:24:44.526Z,70.76
2022-12-22T14:27:20.293Z,71.18
2022-12-22T14:29:50.564Z,70.43
2022-12-22T14:32:36.401Z,70.40
2022-12-22T14:35:06.322Z,69.98
2022-12-22T14:37:34.602Z,70.73
2022-12-22T14:40:03.075Z,70.55
2022-12-22T14:42:32.533Z,72.15
2022-12-22T14:45:02.600Z,70.40
2022-12-22T14:47:31.441Z,70.42
2022-12-22T14:50:04.606Z,70.59
2022-12-22T14:52:37.778Z,71.05
2022-12-22T14:55:19.446Z,71.74
2022-12-22T14:57:52.509Z,71.89
2022-12-22T15:00:37.205Z,72.11
2022-12-22T15:03:08.302Z,70.68
2022-12-22T15:05:39.301Z,71.81
2022-12-22T15:08:31.891Z,72.37
2022-12-22T15:11:03.309Z,72.98
2022-12-22T15:13:32.141Z,72.45
2022-12-22T15:16:01.838Z,71.52
2022-12-22T15:18:30.839Z,71.02
2022-12-22T15:20:59.308Z,71.95
2022-12-22T15:23:27.594Z,71.67
2022-12-22T15:25:55.835Z,71.68
2022-12-22T15:28:24.038Z,71.61
2022-12-22T15:30:52.447Z,71.11
2022-12-22T15:33:22.101Z,70.70
2022-12-22T15:35:50.846Z,71.10
2022-12-22T15:38:21.013Z,71.82
2022-12-22T15:40:49.785Z,71.67
2022-12-22T15:43:54.020Z,70.86
2022-12-22T15:46:07.898Z,71.98
2022-12-22T15:48:41.596Z,72.03
2022-12-22T15:51:19.073Z,72.38
2022-12-22T15:53:47.994Z,71.45
2022-12-22T15:56:21.765Z,72.51
2022-12-22T15:58:50.807Z,72.40
2022-12-22T16:01:19.229Z,72.07
2022-12-22T16:04:14.003Z,72.50
2022-12-22T16:06:42.520Z,72.06
2022-12-22T16:09:18.308Z,71.86
2022-12-22T16:11:46.499Z,72.52
2022-12-22T16:14:16.330Z,72.28
2022-12-22T16:16:44.765Z,72.89
2022-12-22T16:19:16.125Z,72.96
2022-12-22T16:21:46.514Z,72.58
2022-12-22T16:24:26.322Z,73.37
2022-12-22T16:26:57.044Z,72.45
2022-12-22T16:29:26.448Z,73.54
2022-12-22T16:31:55.003Z,73.13
2022-12-22T16:34:24.732Z,74.23
2022-12-22T16:36:52.921Z,73.52
2022-12-22T16:39:21.587Z,74.42
2022-12-22T16:41:59.988Z,73.62
2022-12-22T16:47:18.846Z,73.63
2022-12-22T16:49:50.211Z,73.21
2022-12-22T16:52:20.611Z,71.78
2022-12-22T16:54:52.538Z,73.08
2022-12-22T16:57:21.611Z,72.53
2022-12-22T16:59:50.138Z,72.65
2022-12-22T17:02:24.292Z,72.28
2022-12-22T17:04:56.860Z,72.04
2022-12-22T17:07:25.650Z,72.39
2022-12-22T17:09:58.408Z,72.11
2022-12-22T17:12:30.250Z,72.68
2022-12-22T17:14:59.276Z,72.56
2022-12-22T17:17:33.109Z,73.53
2022-12-22T17:20:08.586Z,72.39
2022-12-22T17:22:38.066Z,73.47
2022-12-22T17:25:08.656Z,72.46
2022-12-22T17:27:36.959Z,72.99
2022-12-22T17:30:06.058Z,72.50
2022-12-22T17:32:34.432Z,72.76
2022-12-22T17:35:02.805Z,71.93
2022-12-22T17:37:32.823Z,70.93
2022-12-22T17:40:02.807Z,70.80
2022-12-22T17:42:32.826Z,71.30
2022-12-22T17:45:01.346Z,71.48
2022-12-22T17:47:34.718Z,72.19
2022-12-22T17:50:08.897Z,72.01
2022-12-22T17:52:39.982Z,71.92
2022-12-22T17:55:18.500Z,72.29
2022-12-22T17:57:46.861Z,71.79
2022-12-22T18:00:19.144Z,71.98
2022-12-22T18:02:48.043Z,72.95
2022-12-22T18:05:18.707Z,73.17
2022-12-22T18:07:49.171Z,74.08
2022-12-22T18:10:25.902Z,74.65
2022-12-22T18:12:56.247Z,74.31
2022-12-22T18:15:26.399Z,73.98
2022-12-22T18:17:55.071Z,74.12
2022-12-22T18:20:25.259Z,72.84
2022-12-22T18:22:57.627Z,73.23
2022-12-22T18:25:28.095Z,73.51
2022-12-22T18:27:57.021Z,73.20
2022-12-22T18:30:27.396Z,72.81
2022-12-22T18:32:56.712Z,73.85
2022-12-22T18:35:27.565Z,73.60
2022-12-22T18:37:57.412Z,73.17
2022-12-22T18:40:29.328Z,73.56
2022-12-22T18:42:58.447Z,72.87
2022-12-22T18:45:29.681Z,73.48
2022-12-22T18:47:59.548Z,72.78
2022-12-22T18:50:30.930Z,72.67
2022-12-22T18:53:04.635Z,72.39
2022-12-22T18:55:34.119Z,72.24
2022-12-22T18:58:02.944Z,72.18
2022-12-22T19:00:36.219Z,72.58
2022-12-22T19:03:15.436Z,71.76
2022-12-22T19:05:45.468Z,72.23
2022-12-22T19:08:18.322Z,72.71
2022-12-22T19:10:50.772Z,72.52
2022-12-22T19:13:23.720Z,71.96
2022-12-22T19:15:52.113Z,72.13
2022-12-22T19:18:26.539Z,72.27
2022-12-22T19:20:56.337Z,71.85
2022-12-22T19:23:27.443Z,72.31
2022-12-22T19:26:02.134Z,72.04
2022-12-22T19:28:35.084Z,71.17
2022-12-22T19:31:04.723Z,72.13
2022-12-22T19:33:36.903Z,70.92
2022-12-22T19:36:05.892Z,71.50
2022-12-22T19:38:36.346Z,71.26
2022-12-22T19:41:06.893Z,69.80
2022-12-22T19:43:35.307Z,70.32
2022-12-22T19:46:05.154Z,69.84
2022-12-22T19:48:33.347Z,69.73
2022-12-22T19:51:01.853Z,69.89
2022-12-22T19:53:31.140Z,70.51
2022-12-22T19:56:00.851Z,70.83
2022-12-22T19:58:37.637Z,70.89
2022-12-22T20:01:11.757Z,71.36
2022-12-22T20:03:39.974Z,71.54
2022-12-22T20:06:09.045Z,71.54
2022-12-22T20:08:37.362Z,71.84
2022-12-22T20:11:13.535Z,70.40
2022-12-22T20:13:43.037Z,71.47
2022-12-22T20:16:13.873Z,71.99
2022-12-22T20:18:42.740Z,71.27
2022-12-22T20:21:15.905Z,71.12
2022-12-22T20:23:44.241Z,71.01
2022-12-22T20:26:17.486Z,71.12
2022-12-22T20:28:45.846Z,70.85
2022-12-22T20:31:16.494Z,71.42
2022-12-22T20:33:44.983Z,70.88
2022-12-22T20:36:21.145Z,71.42
2022-12-22T20:38:52.225Z,71.75
2022-12-22T20:41:23.179Z,71.69
2022-12-22T20:43:52.370Z,71.02
2022-12-22T20:46:24.976Z,70.93
2022-12-22T20:48:56.502Z,71.02
2022-12-22T20:51:26.874Z,70.16
2022-12-22T20:53:55.887Z,70.13
2022-12-22T20:56:28.982Z,70.19
2022-12-22T20:58:58.329Z,70.33
2022-12-22T21:01:26.771Z,70.11
2022-12-22T21:03:55.384Z,70.12
2022-12-22T21:06:29.114Z,70.91
2022-12-22T21:09:00.007Z,71.61
2022-12-22T21:11:30.453Z,72.07
2022-12-22T21:13:59.799Z,71.39
2022-12-22T21:16:31.892Z,70.49
2022-12-22T21:19:00.610Z,69.70
2022-12-22T21:21:28.993Z,70.16
2022-12-22T21:23:57.276Z,70.62
2022-12-22T21:26:32.528Z,69.80
2022-12-22T21:29:02.190Z,69.68
2022-12-22T21:31:30.977Z,69.97
2022-12-22T21:34:00.239Z,70.23
2022-12-22T21:36:30.700Z,70.65
2022-12-22T21:39:01.676Z,70.92
2022-12-22T21:41:45.107Z,71.33
2022-12-22T21:44:13.785Z,70.68
2022-12-22T21:46:45.079Z,70.00
2022-12-22T21:49:19.810Z,70.88
2022-12-22T21:51:49.204Z,70.36
2022-12-22T21:54:19.014Z,70.33
2022-12-22T21:56:50.057Z,70.62
2022-12-22T21:59:18.832Z,70.75
2022-12-22T22:01:48.087Z,70.13
2022-12-22T22:04:16.392Z,70.38
2022-12-22T22:06:44.749Z,71.18
2022-12-22T22:09:13.538Z,71.63
2022-12-22T22:11:56.218Z,71.46
2022-12-22T22:14:26.322Z,70.17
2022-12-22T22:16:55.598Z,70.63
2022-12-22T22:19:23.753Z,70.17
2022-12-22T22:21:51.826Z,70.37
2022-12-22T22:24:20.127Z,70.15
2022-12-22T22:26:50.513Z,69.96
2022-12-22T22:29:18.890Z,69.59
2022-12-22T22:31:48.654Z,69.34
2022-12-22T22:34:17.190Z,69.07
2022-12-22T22:36:45.300Z,69.71
2022-12-22T22:39:13.542Z,70.20
2022-12-22T22:41:43.742Z,70.38
2022-12-22T22:44:12.332Z,70.15
2022-12-22T22:46:40.698Z,69.52
2022-12-22T22:49:10.320Z,68.83
2022-12-22T22:51:38.753Z,67.62
2022-12-22T22:54:07.297Z,67.95
2022-12-22T22:56:38.807Z,68.18
2022-12-22T22:59:07.260Z,67.58
2022-12-22T23:01:35.521Z,68.52
2022-12-22T23:04:03.832Z,68.15
2022-12-22T23:06:34.199Z,68.31
2022-12-22T23:09:02.770Z,67.47
2022-12-22T23:11:31.141Z,67.49
2022-12-22T23:13:59.335Z,68.03
2022-12-22T23:16:30.902Z,67.03
2022-12-22T23:19:04.489Z,66.77
2022-12-22T23:21:34.243Z,67.09
2022-12-22T23:24:02.654Z,66.42
2022-12-22T23:26:31.494Z,66.36
2022-12-22T23:29:03.699Z,66.99
2022-12-22T23:31:33.681Z,66.67
2022-12-22T23:34:02.872Z,66.56
2022-12-22T23:36:33.081Z,66.74
2022-12-22T23:39:02.878Z,67.88
2022-12-22T23:41:31.124Z,66.37
2022-12-22T23:43:59.837Z,66.26
2022-12-22T23:46:28.442Z,66.68
2022-12-22T23:48:58.835Z,66.71
2022-12-22T23:51:29.683Z,67.02
2022-12-22T23:54:00.589Z,67.46
2022-12-22T23:56:31.008Z,67.11
2022-12-22T23:59:00.392Z,66.66
